x

Molasses Reef, Fl (mlrf1) Weather Station

3:00pm - Fri 20th Apr 2018 All times are EDT. -4 hours from GMT.

  • Wind
    5mph, 6mph gusts
  • Sea Temp 78°f
  • Air Temp 78°f
  • Sea Pressure 1018.9mb
  • Molasses Reef, Fl
  • Molasses Reef, Fl

More Historic Weather Station data

Upgrade to MSW Pro to gain access to the past 30 days of data for over 8000 Wavebouys and Weather Stations around the globe.

Join

Comparision Forecast

View Surf forecast
   
Fri 04/20 3:00pm 5 6 mph 1018.9mb 78f 78f
2:00pm  -  2 mph 1019.5mb 78f 78f
1:00pm 1 2 mph 1020.2mb 78f 77f
12:00pm 2 3 mph 1020.6mb 78f 76f
11:00am 3 5 mph 1020.3mb 78f 75f
10:00am 7 8 mph 1020mb 78f 74f
9:00am 10 11 mph 1019.6mb 78f 73f
4:00am 3 3 mph 1018.3mb 78f 74f
3:00am  -  1 mph 1018.7mb 78f 75f
2:00am  -  1 mph 1018.8mb 78f 76f
1:00am  -  1 mph 1019.1mb 78f 76f
12:00am 1 2 mph 1019.6mb 78f 76f
Thu 04/19 11:00pm 1 2 mph 1020mb 78f 76f
10:00pm 1 2 mph 1019.8mb 78f 76f
9:00pm 1 2 mph 1019.1mb 78f 76f
8:00pm 3 3 mph 1018.6mb 79f 77f
7:00pm 5 6 mph 1018.5mb 79f 78f
6:00pm 6 6 mph 1018.4mb 79f 78f
5:00pm 3 5 mph 1018.6mb 79f 78f
4:00pm 3 6 mph 1018.9mb 78f 78f
3:00pm 2 3 mph 1019.5mb 78f 77f
2:00pm  -  1 mph 1020mb 78f 80f
1:00pm  -  1 mph 1020.4mb 78f 77f
12:00pm  -  1 mph 1020.6mb 78f 78f
11:00am 6 7 mph 1020.5mb 78f 76f
10:00am 6 7 mph 1020.1mb 78f 76f
9:00am 3 5 mph 1020.1mb 78f 76f
8:00am 3 6 mph 1019.8mb 78f 76f
7:00am 8 9 mph 1019.3mb 78f 74f
6:00am 7 8 mph 1019mb 78f 74f
5:00am 7 10 mph 1018.7mb 78f 74f
4:00am 13 15 mph 1018.3mb 78f 74f
3:00am 16 17 mph 1018.3mb 78f 74f
2:00am 15 17 mph 1018.9mb 78f 75f
12:00am 10 13 mph 1019.6mb 78f 75f
Wed 04/18 11:00pm 15 16 mph 1019.9mb 78f 75f
10:00pm 17 18 mph 1019.6mb 79f 75f
9:00pm 13 16 mph 1019.4mb 79f 75f
8:00pm 13 16 mph 1019.3mb 79f 75f
7:00pm 16 18 mph 1019mb 79f 76f
6:00pm 14 15 mph 1019.2mb 79f 75f
5:00pm 11 13 mph 1018.9mb 79f 75f
4:00pm 11 13 mph 1019.3mb 78f 75f
3:00pm 11 14 mph 1019.8mb 78f 75f
2:00pm 10 11 mph 1020.5mb 78f 75f
1:00pm 9 10 mph 1020.7mb 78f 74f
12:00pm 11 13 mph 1020.6mb 78f 74f
11:00am 9 10 mph 1020.7mb 78f 74f
10:00am 10 11 mph 1020.5mb 78f 74f
9:00am 8 10 mph 1020mb 78f 74f
8:00am 7 8 mph 1019.8mb 78f 74f
7:00am 8 9 mph 1019mb 78f 73f
5:00am  -  1 mph 1017.7mb 78f 72f
1:00am 8 10 mph 1019.5mb 78f 73f
12:00am 10 11 mph 1019.8mb 78f 73f
Tue 04/17 11:00pm 8 10 mph 1019.9mb 78f 73f
10:00pm 13 14 mph 1019.6mb 78f 73f
9:00pm 14 16 mph 1019.4mb 78f 73f
8:00pm 15 20 mph 1018.7mb 78f 73f
7:00pm 14 16 mph 1018.5mb 78f 73f
6:00pm 15 18 mph 1018.2mb 78f 73f
5:00pm 15 16 mph 1018.4mb 78f 72f
4:00pm 15 17 mph 1018.8mb 78f 71f
3:00pm 16 18 mph 1019.5mb 78f 70f
2:00pm 15 17 mph 1020.1mb 78f 69f
1:00pm 16 18 mph 1020.4mb 77f 69f
12:00pm 18 21 mph 1020.9mb 77f 68f
11:00am 17 20 mph 1021.1mb 77f 67f
10:00am 17 20 mph 1021.1mb 77f 65f
9:00am 22 26 mph 1020.6mb 77f 64f
8:00am 26 29 mph 1020.2mb 78f 64f
7:00am 25 31 mph 1019.5mb 78f 63f
6:00am 23 26 mph 1018.9mb 78f 63f
5:00am 26 29 mph 1018.3mb 78f 63f
4:00am 29 31 mph 1018.2mb 78f 63f
3:00am 26 32 mph 1018.8mb 78f 63f
2:00am 26 29 mph 1019.4mb 78f 64f
1:00am 26 29 mph 1019.6mb 78f 65f
12:00am 22 24 mph 1020mb 78f 67f
Mon 04/16 11:00pm 25 28 mph 1019.3mb 78f 69f
10:00pm 16 18 mph 1018.8mb 78f 71f